• Join FlightAware (Why Join?)
  • Login
  • US Flag 
10:56AM EDT


 

Airport Tracker/Info


-or-


 

Live Flight TrackerFlight Track Log ✈ N865JM ✈ 27-Jan-2014 ✈ KTEB - KIND

Flight Track Log - Related Links

Times and Time Zones

All times are in EST time to prevent confusion due to time zone crossing. See the N865JM flight status page for this flight to view local times or setup timezone preferences in your user account.

Time Position Orientation Groundspeed Altitude Reporting Facility
EST Latitude Longitude Course Direction KTS MPH feet Rate Location/Type
01:07PM 40.8167 -74.1167 270° West 179 206 1,500  Level New York TRACON
01:08PM 40.8167 -74.1833 270° West 161 185 2,700 2,160 Climbing New York TRACON
01:09PM 40.8167 -74.2500 270° West 213 245 5,700 3,540 Climbing New York TRACON
01:10PM 40.8167 -74.3167 270° West 209 241 9,500 3,360 Climbing New York TRACON
01:11PM 40.8167 -74.3833 270° West 226 260 12,100 2,640 Climbing New York TRACON
01:12PM 40.8167 -74.4833 270° West 274 315 14,600 1,980 Climbing New York TRACON
01:13PM 40.8106 -74.6450 267° West 288 331 17,100 960 Climbing New York Center
01:14PM 40.7950 -74.7372 257° West 288 331 17,100 900 Level New York Center
01:15PM 40.7706 -74.8400 253° West 298 343 19,000 1,920 Climbing New York Center
01:16PM 40.7442 -74.9453 252° West 298 343 21,000 1,980 Climbing New York Center
01:17PM 40.7172 -75.0531 252° West 303 349 23,000 1,980 Climbing New York Center
01:18PM 40.6883 -75.1636 251° West 309 356 25,000 1,980 Climbing New York Center
01:19PM 40.6633 -75.2714 253° West 309 356 27,000 1,800 Climbing New York Center
01:20PM 40.6364 -75.3764 251° West 309 356 28,700 1,560 Climbing New York Center
01:21PM 40.6092 -75.4867 252° West 314 361 30,200 1,440 Climbing New York Center
01:22PM 40.5819 -75.5914 251° West 314 361 31,600 1,200 Climbing New York Center
01:23PM 40.5525 -75.7011 251° West 319 367 32,700 1,020 Climbing New York Center
01:24PM 40.5247 -75.8111 252° West 319 367 33,700 960 Climbing New York Center
01:25PM 40.4908 -75.9206 248° West 319 367 34,700 960 Climbing New York Center
01:26PM 40.4633 -76.0278 251° West 319 367 35,700 600 Climbing New York Center
01:27PM 40.4375 -76.1375 253° West 319 367 36,000 120 Climbing New York Center
01:28PM 40.4053 -76.2469 249° West 319 367 36,000  Level New York Center
01:29PM 40.3753 -76.3561 250° West 319 367 36,000  Level New York Center
01:30PM 40.3472 -76.4656 251° West 319 367 36,000  Level New York Center
01:31PM 40.3353 -76.5817 262° West 319 367 36,000  Level New York Center
01:32PM 40.3292 -76.7011 266° West 319 367 36,000  Level New York Center
01:33PM 40.3214 -76.8147 265° West 324 373 36,000  Level New York Center
01:34PM 40.3133 -76.9283 265° West 324 373 36,000  Level New York Center
01:35PM 40.3072 -77.0478 266° West 329 379 36,000  Level New York Center
01:36PM 40.2981 -77.1803 265° West 329 379 36,000  Level New York Center
01:37PM 40.2922 -77.2858 266° West 329 379 36,000  Level New York Center
01:40PM 40.2758 -77.5731 266° West 324 373 36,000  Level Cleveland Center
01:41PM 40.2689 -77.6900 266° West 324 373 36,000  Level Cleveland Center
01:42PM 40.2600 -77.8081 264° West 323 372 36,000  Level Cleveland Center
01:43PM 40.2517 -77.9333 265° West 324 373 36,000  Level Cleveland Center
01:44PM 40.2431 -78.0514 265° West 324 373 36,000  Level Cleveland Center
01:45PM 40.2361 -78.1700 266° West 324 373 36,000  Level Cleveland Center
01:46PM 40.2306 -78.2881 267° West 324 373 36,000  Level Cleveland Center
01:47PM 40.2358 -78.4100 273° West 330 380 36,000  Level Cleveland Center
01:48PM 40.2383 -78.5331 272° West 336 387 36,000  Level Cleveland Center
01:49PM 40.2425 -78.6794 272° West 336 387 36,000  Level Cleveland Center
01:50PM 40.2456 -78.8039 272° West 339 390 36,000  Level Cleveland Center
01:51PM 40.2489 -78.9261 272° West 342 394 36,000  Level Cleveland Center
01:52PM 40.2533 -79.0564 273° West 355 409 36,000  Level Cleveland Center
01:53PM 40.2558 -79.1819 272° West 348 400 36,000  Level Cleveland Center
01:54PM 40.2589 -79.3244 272° West 348 400 36,000  Level Cleveland Center
01:55PM 40.2625 -79.4489 272° West 344 396 36,000  Level Cleveland Center
01:56PM 40.2642 -79.5758 271° West 347 399 36,000  Level Cleveland Center
01:57PM 40.2667 -79.7000 272° West 345 397 36,000  Level Cleveland Center
01:58PM 40.2683 -79.8236 271° West 343 395 36,000  Level Cleveland Center
01:59PM 40.2708 -79.9475 272° West 340 391 36,000  Level Cleveland Center
02:00PM 40.2736 -80.0703 272° West 338 389 36,000  Level Cleveland Center
02:01PM 40.2761 -80.1931 272° West 333 383 36,000  Level Cleveland Center
02:02PM 40.2778 -80.3153 271° West 333 383 36,000  Level Cleveland Center
02:03PM 40.2792 -80.4614 271° West 332 382 36,000  Level Cleveland Center
02:04PM 40.2808 -80.5811 271° West 332 382 36,000  Level Cleveland Center
02:05PM 40.2825 -80.7008 271° West 331 381 36,000  Level Cleveland Center
02:06PM 40.2831 -80.8214 270° West 331 381 36,000  Level Cleveland Center
02:07PM 40.2850 -80.9408 271° West 329 379 36,000  Level Cleveland Center
02:08PM 40.2850 -81.0594 270° West 329 379 36,000  Level Cleveland Center
02:09PM 40.2844 -81.1656 270° West 328 377 36,000  Level Indianapolis Center
02:10PM 40.2850 -81.2853 270° West 326 375 36,000  Level Indianapolis Center
02:11PM 40.2858 -81.4064 271° West 329 379 36,000  Level Indianapolis Center
02:12PM 40.2875 -81.5258 271° West 327 376 36,000  Level Indianapolis Center
02:13PM 40.2875 -81.6467 270° West 328 377 36,000  Level Indianapolis Center
02:14PM 40.2872 -81.7675 270° West 328 377 36,000  Level Indianapolis Center
02:15PM 40.2875 -81.8872 270° West 328 377 36,000 -300 Level Indianapolis Center
02:16PM 40.2875 -82.0089 270° West 330 380 35,500 -540 Descending Indianapolis Center
02:17PM 40.2875 -82.1475 270° West 324 373 35,000 -360 Descending Indianapolis Center
02:19PM 40.2875 -82.2675 270° West 326 375 34,800 -360 Descending Indianapolis Center
02:20PM 40.2864 -82.3850 269° West 322 371 34,300 -540 Descending Indianapolis Center
02:21PM 40.2867 -82.4994 270° West 313 360 33,800 -540 Descending Indianapolis Center
02:22PM 40.2861 -82.6083 270° West 300 345 33,300 -540 Descending Indianapolis Center
02:23PM 40.2847 -82.7222 269° West 295 339 32,700 -540 Descending Indianapolis Center
02:24PM 40.2844 -82.8278 270° West 292 336 32,200 -540 Descending Indianapolis Center
02:25PM 40.2836 -82.9308 269° West 291 335 31,700 -540 Descending Indianapolis Center
02:26PM 40.2831 -83.0381 270° West 290 334 31,200 -540 Descending Indianapolis Center
02:27PM 40.2817 -83.1425 269° West 289 333 30,700 -540 Descending Indianapolis Center
02:28PM 40.2797 -83.2472 269° West 290 334 30,200 -360 Descending Indianapolis Center
02:29PM 40.2753 -83.3714 267° West 289 333 30,000 -120 Descending Indianapolis Center
02:30PM 40.2681 -83.4781 265° West 295 339 30,000  Level Indianapolis Center
02:31PM 40.2603 -83.5831 264° West 293 337 30,000  Level Indianapolis Center
02:32PM 40.2539 -83.6903 266° West 297 342 30,000  Level Indianapolis Center
02:33PM 40.2467 -83.7969 265° West 297 342 30,000  Level Indianapolis Center
02:34PM 40.2392 -83.9033 265° West 294 338 30,000 -360 Level Indianapolis Center
02:35PM 40.2306 -84.0306 265° West 293 337 29,300 -840 Descending Indianapolis Center
02:36PM 40.2236 -84.1383 265° West 299 344 28,400 -780 Descending Indianapolis Center
02:37PM 40.2147 -84.2494 264° West 307 353 27,700 -720 Descending Indianapolis Center
02:38PM 40.2067 -84.3542 264° West 293 337 27,000 -720 Descending Indianapolis Center
02:39PM 40.1992 -84.4561 265° West 285 328 26,300 -720 Descending Indianapolis Center
02:40PM 40.1919 -84.5608 265° West 289 333 25,600 -720 Descending Indianapolis Center
02:41PM 40.1844 -84.6642 265° West 288 331 24,900 -1,020 Descending Indianapolis Center
02:42PM 40.1744 -84.7908 264° West 290 334 23,600 -1,500 Descending Indianapolis Center
02:43PM 40.1656 -84.8903 263° West 282 325 21,900 -1,620 Descending Indianapolis Center
02:44PM 40.1578 -84.9867 264° West 276 318 20,300 -1,620 Descending Indianapolis Center
02:45PM 40.1489 -85.0922 264° West 292 336 18,600 -1,620 Descending Indianapolis Center
02:46PM 40.1406 -85.1997 264° West 297 342 17,100 -1,560 Descending Indianapolis Center
02:47PM 40.1311 -85.3267 264° West 294 338 15,400 -1,800 Descending Indianapolis Center
02:48PM 40.1222 -85.4281 263° West 285 328 13,500 -1,800 Descending Indianapolis Center
02:49PM 40.1142 -85.5292 264° West 283 326 11,800 -1,680 Descending Indianapolis Center
02:50PM 40.1072 -85.6247 265° West 269 310 10,100 -1,560 Descending Indianapolis Center
02:51PM 40.0997 -85.7061 263° West 232 267 8,600 -1,500 Descending Indianapolis Center
02:52PM 40.0706 -85.7811 243° Southwest 236 272 7,100 -780 Descending Indianapolis Center
02:53PM 40.0350 -85.8631 240° Southwest 226 260 7,000 -60 Descending Indianapolis Center
02:55PM 40.0050 -85.9233 237° Southwest 212 244 7,000  Level Indianapolis Center
02:56PM 39.9717 -85.9669 225° Southwest 185 213 7,000 -480 Level Indianapolis Center
02:57PM 39.9383 -86.0136 227° Southwest 179 206 6,100 -840 Descending Indianapolis Center
02:58PM 39.9058 -86.0592 227° Southwest 175 201 5,300 -780 Descending Indianapolis Center
02:59PM 39.8739 -86.1036 227° Southwest 171 197 4,500 -780 Descending Indianapolis Center
03:00PM 39.8414 -86.1469 226° Southwest 170 196 3,700 -780 Descending Indianapolis Center
03:01PM 39.8053 -86.1950 226° Southwest 163 188 3,000 -660 Descending Indianapolis Center
03:02PM 39.7786 -86.2286 224° Southwest 148 170 2,400 -660 Descending Indianapolis Center
03:03PM 39.7558 -86.2575 224° Southwest 130 150 1,700 -780 Descending Indianapolis Center
03:04PM 39.7300 -86.2903 224° Southwest 124 143 900 -540 Descending Indianapolis Center
03:05PM 39.7067 -86.3203 225° Southwest 123 142 700 -240 Descending Indianapolis Center